Time;durP1;ratioP1;P1;durP2;ratioP2;P2;SDS_P1;SDS_P2;PMS_P1;PMS_P2;Temp;Humidity;BMP_temperature;BMP_pressure;BME280_temperature;BME280_humidity;BME280_pressure;Samples;Min_cycle;Max_cycle;Signal;HPM_P1;HPM_P2
2021/05/24 00:01:41;;;;;;;5.78;3.67;;;;;;;-143.98;100.00;68091.63;6230756;23;20031;-82
2021/05/24 00:04:08;;;;;;;6.95;3.63;;;;;;;-143.98;100.00;68091.63;6229988;23;20028;-82
2021/05/24 00:06:38;;;;;;;4.68;3.22;;;;;;;-143.98;100.00;68091.63;6230252;23;20063;-82
2021/05/24 00:09:09;;;;;;;7.68;3.83;;;;;;;-143.98;100.00;68091.63;6230067;23;20024;-82
2021/05/24 00:11:50;;;;;;;13.05;3.88;;;;;;;-143.98;100.00;68091.63;6254829;23;20076;-83
2021/05/24 00:14:19;;;;;;;9.05;3.47;;;;;;;-143.98;100.00;68091.63;6229890;23;20029;-82
2021/05/24 00:16:47;;;;;;;8.75;2.92;;;;;;;-143.98;100.00;68091.63;6229204;23;20059;-83
2021/05/24 00:19:13;;;;;;;4.93;3.35;;;;;;;-143.98;100.00;68091.63;6254434;23;20048;-82
2021/05/24 00:21:43;;;;;;;9.30;3.45;;;;;;;-143.98;100.00;68091.63;6254434;23;20028;-82
2021/05/24 00:24:10;;;;;;;11.55;2.83;;;;;;;-143.98;100.00;68091.63;6253988;23;20028;-82
2021/05/24 00:26:38;;;;;;;10.77;3.00;;;;;;;-143.98;100.00;68091.63;6254026;23;20016;-82
2021/05/24 00:29:14;;;;;;;7.53;3.35;;;;;;;-143.98;100.00;68091.63;6229903;23;20024;-83
2021/05/24 00:31:43;;;;;;;9.75;3.42;;;;;;;-143.98;100.00;68091.63;6254923;22;20303;-82
2021/05/24 00:34:10;;;;;;;8.18;3.45;;;;;;;-143.98;100.00;68091.63;6254362;23;20115;-83
2021/05/24 00:36:37;;;;;;;7.85;3.08;;;;;;;-143.98;100.00;68091.63;6228739;23;20043;-82
2021/05/24 00:39:09;;;;;;;7.35;2.63;;;;;;;-143.98;100.00;68091.63;6255850;23;20039;-82
2021/05/24 00:41:44;;;;;;;5.35;3.10;;;;;;;-143.98;100.00;68091.63;6255856;23;20043;-82
2021/05/24 00:44:15;;;;;;;7.18;3.00;;;;;;;-143.98;100.00;68091.63;6254924;23;20040;-82
2021/05/24 00:46:45;;;;;;;6.97;3.25;;;;;;;-143.98;100.00;68091.63;6256421;23;20032;-82
2021/05/24 00:49:17;;;;;;;8.63;2.65;;;;;;;-143.98;100.00;68091.63;6255364;23;20027;-82
2021/05/24 00:51:44;;;;;;;5.22;2.47;;;;;;;-143.98;100.00;68091.63;6254106;23;20028;-84
2021/05/24 00:54:15;;;;;;;10.43;3.10;;;;;;;-143.98;100.00;68091.63;6253587;23;20029;-84
2021/05/24 00:56:46;;;;;;;4.75;2.75;;;;;;;-143.98;100.00;68091.63;6228766;23;20024;-84
2021/05/24 00:59:16;;;;;;;7.25;2.65;;;;;;;-143.98;100.00;68091.63;6252214;23;20347;-84
2021/05/24 01:01:46;;;;;;;4.40;2.90;;;;;;;-143.98;100.00;68091.63;6250175;23;20028;-85
2021/05/24 01:04:15;;;;;;;4.85;2.90;;;;;;;-143.98;100.00;68091.63;6252877;23;20028;-85
2021/05/24 01:06:42;;;;;;;5.82;2.90;;;;;;;-143.98;100.00;68091.63;6228137;23;20028;-84
2021/05/24 01:09:11;;;;;;;8.75;2.90;;;;;;;-143.98;100.00;68091.63;6253410;23;20611;-84
2021/05/24 01:11:53;;;;;;;5.72;2.67;;;;;;;-143.98;100.00;68091.63;6233531;23;20062;-84
2021/05/24 01:14:20;;;;;;;6.32;2.70;;;;;;;-143.98;100.00;68091.63;6251900;23;20035;-85
2021/05/24 01:16:53;;;;;;;9.52;3.25;;;;;;;-143.98;100.00;68091.63;6226406;23;20023;-85
2021/05/24 01:19:22;;;;;;;10.27;3.00;;;;;;;-143.98;100.00;68091.63;6203770;23;20028;-85
2021/05/24 01:21:49;;;;;;;7.53;2.63;;;;;;;-143.98;100.00;68091.63;6225861;23;20605;-84
2021/05/24 01:24:20;;;;;;;8.98;3.20;;;;;;;-143.98;100.00;68091.63;6252357;23;20016;-84
2021/05/24 01:26:47;;;;;;;9.10;2.58;;;;;;;-143.98;100.00;68091.63;6225701;23;20028;-84
2021/05/24 01:29:56;;;;;;;8.00;2.75;;;;;;;-143.98;100.00;68091.63;6224916;23;20024;-84
2021/05/24 01:32:23;;;;;;;10.02;2.80;;;;;;;-143.98;100.00;68091.63;6251267;23;20024;-84
2021/05/24 01:34:50;;;;;;;12.27;3.30;;;;;;;-143.98;100.00;68091.63;6249970;23;20051;-84
2021/05/24 01:37:17;;;;;;;12.52;3.10;;;;;;;-143.98;100.00;68091.63;6253384;22;20116;-84
2021/05/24 01:39:44;;;;;;;7.15;2.60;;;;;;;-143.98;100.00;68091.63;6250735;23;20082;-84
2021/05/24 01:42:11;;;;;;;7.47;2.83;;;;;;;-143.98;100.00;68091.63;6227243;23;20107;-85
2021/05/24 01:44:40;;;;;;;7.15;2.58;;;;;;;-143.98;100.00;68091.63;6251375;23;20105;-84
2021/05/24 01:47:15;;;;;;;5.80;2.97;;;;;;;-143.98;100.00;68091.63;6226332;23;20474;-84
2021/05/24 01:49:47;;;;;;;5.90;2.63;;;;;;;-143.98;100.00;68091.63;6226421;23;20024;-85
2021/05/24 01:52:18;;;;;;;6.38;2.75;;;;;;;-143.98;100.00;68091.63;6226921;23;20027;-85
2021/05/24 01:54:46;;;;;;;3.47;2.60;;;;;;;-143.98;100.00;68091.63;6253870;23;20028;-84
2021/05/24 01:57:13;;;;;;;9.15;2.70;;;;;;;-143.98;100.00;68091.63;6270412;22;20008;-84
2021/05/24 01:59:40;;;;;;;6.50;2.60;;;;;;;-143.98;100.00;68091.63;6270335;23;20028;-84
2021/05/24 02:02:26;;;;;;;8.18;2.80;;;;;;;-143.98;100.00;68091.63;6254214;23;20028;-85
2021/05/24 02:04:52;;;;;;;7.28;2.90;;;;;;;-143.98;100.00;68091.63;6251310;23;20039;-84
2021/05/24 02:07:19;;;;;;;12.00;2.97;;;;;;;-143.98;100.00;68091.63;6251492;23;20035;-84
2021/05/24 02:09:51;;;;;;;5.05;2.47;;;;;;;-143.98;100.00;68091.63;6251317;23;20401;-84
2021/05/24 02:12:19;;;;;;;10.07;2.67;;;;;;;-143.98;100.00;68091.63;6251294;23;20032;-83
2021/05/24 02:14:46;;;;;;;5.78;2.70;;;;;;;-143.98;100.00;68091.63;6226397;23;20038;-84
2021/05/24 02:17:12;;;;;;;8.80;2.78;;;;;;;-143.98;100.00;68091.63;6225552;23;20027;-84
2021/05/24 02:19:39;;;;;;;5.85;2.33;;;;;;;-143.98;100.00;68091.63;6251465;23;20030;-84
2021/05/24 02:22:06;;;;;;;6.28;2.25;;;;;;;-143.98;100.00;68091.63;6252848;23;20028;-83
2021/05/24 02:24:33;;;;;;;6.78;2.35;;;;;;;-143.98;100.00;68091.63;6225246;23;20030;-84
2021/05/24 02:26:59;;;;;;;5.40;2.20;;;;;;;-143.98;100.00;68091.63;6251519;23;20034;-84
2021/05/24 02:29:26;;;;;;;5.85;2.55;;;;;;;-143.98;100.00;68091.63;6230022;23;20028;-82
2021/05/24 02:31:53;;;;;;;7.35;2.60;;;;;;;-143.98;100.00;68091.63;6256797;23;20159;-82
2021/05/24 02:34:20;;;;;;;11.35;2.83;;;;;;;-143.98;100.00;68091.63;6256899;23;20031;-81
2021/05/24 02:36:47;;;;;;;7.25;2.85;;;;;;;-143.98;100.00;68091.63;6232223;23;20082;-82
2021/05/24 02:39:24;;;;;;;3.53;2.80;;;;;;;-143.98;100.00;68091.63;6258293;23;20024;-82
2021/05/24 02:41:51;;;;;;;10.32;2.63;;;;;;;-143.98;100.00;68091.63;6257497;23;20032;-82
2021/05/24 02:44:18;;;;;;;7.85;2.38;;;;;;;-143.98;100.00;68091.63;6258218;23;20034;-82
2021/05/24 02:46:48;;;;;;;6.45;2.40;;;;;;;-143.98;100.00;68091.63;6261175;23;20123;-82
2021/05/24 02:49:28;;;;;;;6.40;2.72;;;;;;;-143.98;100.00;68091.63;6242978;23;20035;-82
2021/05/24 02:51:55;;;;;;;8.73;2.85;;;;;;;-143.98;100.00;68091.63;6269784;23;20034;-81
2021/05/24 02:54:21;;;;;;;5.50;1.85;;;;;;;-143.98;100.00;68091.63;6243456;23;20048;-82
2021/05/24 02:56:49;;;;;;;4.72;2.05;;;;;;;-143.98;100.00;68091.63;6268167;23;20075;-82
2021/05/24 02:59:33;;;;;;;7.15;2.35;;;;;;;-143.98;100.00;68091.63;6268623;23;20008;-81
2021/05/24 03:02:02;;;;;;;8.63;2.55;;;;;;;-143.98;100.00;68091.63;6269600;23;20022;-82
2021/05/24 03:04:31;;;;;;;7.68;2.33;;;;;;;-143.98;100.00;68091.63;6267435;23;20028;-82
2021/05/24 03:06:58;;;;;;;8.75;2.42;;;;;;;-143.98;100.00;68091.63;6266150;23;20072;-82
2021/05/24 03:09:31;;;;;;;6.93;1.98;;;;;;;-143.98;100.00;68091.63;6235845;23;20063;-83
2021/05/24 03:11:59;;;;;;;11.13;2.70;;;;;;;-143.98;100.00;68091.63;6228062;23;20035;-82
2021/05/24 03:14:25;;;;;;;4.80;2.30;;;;;;;-143.98;100.00;68091.63;6256565;23;20095;-83
2021/05/24 03:16:55;;;;;;;6.10;2.72;;;;;;;-143.98;100.00;68091.63;6257046;23;20035;-82
2021/05/24 03:19:22;;;;;;;9.40;2.20;;;;;;;-143.98;100.00;68091.63;6257288;22;20020;-83
2021/05/24 03:21:54;;;;;;;4.47;1.90;;;;;;;-143.98;100.00;68091.63;6230632;23;20028;-82
2021/05/24 03:24:21;;;;;;;6.78;2.25;;;;;;;-143.98;100.00;68091.63;6254628;22;20039;-83
2021/05/24 03:26:58;;;;;;;6.65;2.33;;;;;;;-143.98;100.00;68091.63;6231417;23;20024;-84
2021/05/24 03:29:30;;;;;;;11.30;2.75;;;;;;;-143.98;100.00;68091.63;6254919;23;20105;-84
2021/05/24 03:31:57;;;;;;;11.35;2.67;;;;;;;-143.98;100.00;68091.63;6228766;23;20035;-83
2021/05/24 03:34:26;;;;;;;5.45;2.55;;;;;;;-143.98;100.00;68091.63;6256688;23;20055;-84
2021/05/24 03:36:54;;;;;;;5.07;2.17;;;;;;;-143.98;100.00;68091.63;6236385;23;20042;-84
2021/05/24 03:39:24;;;;;;;7.10;2.33;;;;;;;-143.98;100.00;68091.63;6212268;23;20059;-82
2021/05/24 03:41:52;;;;;;;6.82;2.00;;;;;;;-143.98;100.00;68091.63;6236844;23;20099;-83
2021/05/24 03:44:20;;;;;;;3.75;2.20;;;;;;;-143.98;100.00;68091.63;6256579;23;20047;-84
2021/05/24 03:46:50;;;;;;;5.85;2.08;;;;;;;-143.98;100.00;68091.63;6256234;23;20353;-83
2021/05/24 03:49:26;;;;;;;4.50;2.00;;;;;;;-143.98;100.00;68091.63;6234378;23;20024;-83
2021/05/24 03:51:53;;;;;;;4.38;2.10;;;;;;;-143.98;100.00;68091.63;6230706;23;20112;-83
2021/05/24 03:54:23;;;;;;;10.88;2.42;;;;;;;-143.98;100.00;68091.63;6258921;22;20032;-83
2021/05/24 03:57:01;;;;;;;4.53;1.75;;;;;;;-143.98;100.00;68091.63;6265137;22;20051;-83
2021/05/24 03:59:28;;;;;;;8.85;2.42;;;;;;;-143.98;100.00;68091.63;6261581;23;20028;-83
2021/05/24 04:01:55;;;;;;;6.60;1.98;;;;;;;-143.98;100.00;68091.63;6238619;23;20028;-83
2021/05/24 04:04:25;;;;;;;7.10;2.30;;;;;;;-143.98;100.00;68091.63;6232439;23;20028;-84
2021/05/24 04:07:06;;;;;;;4.20;1.83;;;;;;;-143.98;100.00;68091.63;6253738;23;20055;-84
2021/05/24 04:09:33;;;;;;;2.63;1.48;;;;;;;-143.98;100.00;68091.63;6231354;23;20099;-84
2021/05/24 04:11:59;;;;;;;4.00;1.55;;;;;;;-143.98;100.00;68091.63;6258639;23;20031;-83
2021/05/24 04:14:26;;;;;;;7.10;2.03;;;;;;;-143.98;100.00;68091.63;6232517;23;20036;-84
2021/05/24 04:16:53;;;;;;;2.33;1.60;;;;;;;-143.98;100.00;68091.63;6228141;23;20024;-84
2021/05/24 04:19:24;;;;;;;4.85;1.60;;;;;;;-143.98;100.00;68091.63;6253740;23;20024;-84
2021/05/24 04:21:54;;;;;;;2.33;1.40;;;;;;;-143.98;100.00;68091.63;6260996;23;20076;-85
2021/05/24 04:24:21;;;;;;;5.18;1.77;;;;;;;-143.98;100.00;68091.63;6255233;23;20107;-85
2021/05/24 04:26:48;;;;;;;3.35;1.58;;;;;;;-143.98;100.00;68091.63;6253241;23;20484;-85
2021/05/24 04:29:18;;;;;;;4.22;1.67;;;;;;;-143.98;100.00;68091.63;6252094;23;20016;-81
2021/05/24 04:31:46;;;;;;;5.15;1.80;;;;;;;-143.98;100.00;68091.63;6251504;23;20024;-82
2021/05/24 04:34:13;;;;;;;7.47;2.08;;;;;;;-143.98;100.00;68091.63;6227080;23;20032;-85
2021/05/24 04:36:42;;;;;;;5.80;1.80;;;;;;;-143.98;100.00;68091.63;6227281;23;20432;-82
2021/05/24 04:39:09;;;;;;;7.28;1.95;;;;;;;-143.98;100.00;68091.63;6228902;23;20075;-82
2021/05/24 04:41:36;;;;;;;5.15;1.35;;;;;;;-143.98;100.00;68091.63;6251846;22;20038;-85
2021/05/24 04:44:12;;;;;;;6.22;1.67;;;;;;;-143.98;100.00;68091.63;6226468;23;20031;-85
2021/05/24 04:46:39;;;;;;;;;;;;;;;-143.98;100.00;68091.63;6229737;23;20031;-82
2021/05/24 04:49:07;;;;;;;1.63;1.30;;;;;;;-143.98;100.00;68091.63;6250075;23;19915;-84
2021/05/24 04:51:33;;;;;;;7.93;1.92;;;;;;;-143.98;100.00;68091.63;6227050;23;20098;-83
2021/05/24 04:54:00;;;;;;;2.97;1.67;;;;;;;-143.98;100.00;68091.63;6251969;23;20058;-84
2021/05/24 04:56:34;;;;;;;4.95;1.70;;;;;;;-143.98;100.00;68091.63;6252020;23;20048;-84
2021/05/24 04:59:02;;;;;;;4.75;1.42;;;;;;;-143.98;100.00;68091.63;6252077;23;20120;-84
2021/05/24 05:01:29;;;;;;;2.20;1.30;;;;;;;-143.98;100.00;68091.63;6225504;23;20024;-84
2021/05/24 05:03:56;;;;;;;5.30;1.40;;;;;;;-143.98;100.00;68091.63;6251829;23;20028;-84
2021/05/24 05:06:22;;;;;;;4.85;1.63;;;;;;;-143.98;100.00;68091.63;6245367;23;20084;-83
2021/05/24 05:08:49;;;;;;;4.10;1.42;;;;;;;-143.98;100.00;68091.63;6270750;23;20039;-84
2021/05/24 05:11:16;;;;;;;5.13;1.60;;;;;;;-143.98;100.00;68091.63;6255213;23;20024;-84
2021/05/24 05:13:43;;;;;;;4.53;1.33;;;;;;;-143.98;100.00;68091.63;6251618;23;20032;-84
2021/05/24 05:16:11;;;;;;;2.72;1.33;;;;;;;-143.98;100.00;68091.63;6252085;22;20020;-83
2021/05/24 05:18:38;;;;;;;4.85;1.30;;;;;;;-143.98;100.00;68091.63;6250400;23;20492;-83
2021/05/24 05:21:05;;;;;;;4.50;1.60;;;;;;;-143.98;100.00;68091.63;6250778;23;20108;-83
2021/05/24 05:23:37;;;;;;;9.52;1.85;;;;;;;-143.98;100.00;68091.63;6250077;23;20353;-82
2021/05/24 05:26:05;;;;;;;3.90;1.30;;;;;;;-143.98;100.00;68091.63;6250255;23;20082;-83
2021/05/24 05:28:32;;;;;;;4.30;1.50;;;;;;;-143.98;100.00;68091.63;6251273;23;20548;-83
2021/05/24 05:30:58;;;;;;;6.72;1.58;;;;;;;-143.98;100.00;68091.63;6249731;23;20024;-83
2021/05/24 05:33:25;;;;;;;2.45;1.50;;;;;;;-143.98;100.00;68091.63;6251255;23;20107;-83
2021/05/24 05:35:55;;;;;;;5.05;1.63;;;;;;;-143.98;100.00;68091.63;6249616;23;20024;-83
2021/05/24 05:38:22;;;;;;;3.80;1.20;;;;;;;-143.98;100.00;68091.63;6250808;23;20055;-83
2021/05/24 05:40:51;;;;;;;3.97;1.75;;;;;;;-143.98;100.00;68091.63;6225126;23;20103;-83
2021/05/24 05:44:13;;;;;;;2.80;1.40;;;;;;;-143.98;100.00;68091.63;6249667;23;20031;-83
2021/05/24 05:46:51;;;;;;;3.90;1.40;;;;;;;-143.98;100.00;68091.63;6251312;23;20063;-83
2021/05/24 05:49:27;;;;;;;2.08;1.02;;;;;;;-143.98;100.00;68091.63;6225085;23;20028;-83
2021/05/24 05:51:54;;;;;;;3.47;1.33;;;;;;;-143.98;100.00;68091.63;6249255;23;20032;-84
2021/05/24 05:54:23;;;;;;;2.88;1.13;;;;;;;-143.98;100.00;68091.63;6223460;23;20230;-84
2021/05/24 05:56:57;;;;;;;2.25;1.10;;;;;;;-143.98;100.00;68091.63;6248974;23;20024;-84
2021/05/24 05:59:24;;;;;;;3.70;1.20;;;;;;;-143.98;100.00;68091.63;6248810;23;20123;-84
2021/05/24 06:01:54;;;;;;;4.18;1.33;;;;;;;-143.98;100.00;68091.63;6248552;23;20126;-84
2021/05/24 06:04:24;;;;;;;2.45;1.00;;;;;;;-143.98;100.00;68091.63;6247583;23;20028;-85
2021/05/24 06:06:57;;;;;;;4.05;0.95;;;;;;;-143.98;100.00;68091.63;6221453;23;20304;-85
2021/05/24 06:09:23;;;;;;;4.13;0.93;;;;;;;-143.98;100.00;68091.63;6244455;23;20039;-85
2021/05/24 06:11:58;;;;;;;3.33;0.82;;;;;;;-143.98;100.00;68091.63;6221697;23;20046;-86
2021/05/24 06:14:25;;;;;;;1.67;0.90;;;;;;;-143.98;100.00;68091.63;6247666;23;20068;-85
2021/05/24 06:16:52;;;;;;;1.17;0.77;;;;;;;-143.98;100.00;68091.63;6246516;23;20082;-85
2021/05/24 06:19:21;;;;;;;2.47;0.98;;;;;;;-143.98;100.00;68091.63;6221736;23;20034;-86
2021/05/24 06:21:52;;;;;;;3.75;1.00;;;;;;;-143.98;100.00;68091.63;6247722;23;20111;-86
2021/05/24 06:24:20;;;;;;;5.05;1.30;;;;;;;-143.98;100.00;68091.63;6243336;23;20109;-85
2021/05/24 06:26:47;;;;;;;5.07;0.80;;;;;;;-143.98;100.00;68091.63;6220839;23;20271;-87
2021/05/24 06:29:14;;;;;;;3.30;0.65;;;;;;;-143.98;100.00;68091.63;6244660;23;20080;-86
2021/05/24 06:31:43;;;;;;;2.67;0.88;;;;;;;-143.98;100.00;68091.63;6218812;23;20401;-86
2021/05/24 06:34:09;;;;;;;2.47;0.70;;;;;;;-143.98;100.00;68091.63;6245369;23;20028;-86
2021/05/24 06:36:36;;;;;;;2.70;0.77;;;;;;;-143.98;100.00;68091.63;6223112;23;20024;-86
2021/05/24 06:39:06;;;;;;;1.35;0.57;;;;;;;-143.98;100.00;68091.63;6246018;22;20356;-86
2021/05/24 06:41:35;;;;;;;7.53;0.95;;;;;;;-143.98;100.00;68091.63;6246302;23;20024;-85
2021/05/24 06:44:02;;;;;;;2.38;0.63;;;;;;;-143.98;100.00;68091.63;6248172;23;20098;-86
2021/05/24 06:46:29;;;;;;;2.28;0.60;;;;;;;-143.98;100.00;68091.63;6248222;23;20024;-86
2021/05/24 06:48:59;;;;;;;3.97;1.02;;;;;;;-143.98;100.00;68091.63;6246070;23;20024;-85
2021/05/24 06:51:27;;;;;;;2.85;0.60;;;;;;;-143.98;100.00;68091.63;6221044;23;20035;-86
2021/05/24 06:53:54;;;;;;;2.35;0.57;;;;;;;-143.98;100.00;68091.63;6220483;23;20054;-85
2021/05/24 06:56:21;;;;;;;3.28;0.70;;;;;;;-143.98;100.00;68091.63;6245050;23;20056;-86
2021/05/24 06:58:55;;;;;;;1.42;0.60;;;;;;;-143.98;100.00;68091.63;6245993;23;20032;-86
2021/05/24 07:01:22;;;;;;;3.85;0.60;;;;;;;-143.98;100.00;68091.63;6221404;23;20034;-86
2021/05/24 07:03:51;;;;;;;2.25;0.77;;;;;;;-143.98;100.00;68091.63;6222327;23;20144;-86
2021/05/24 07:06:18;;;;;;;0.98;0.57;;;;;;;-143.98;100.00;68091.63;6245119;23;20028;-86
2021/05/24 07:08:51;;;;;;;1.25;0.47;;;;;;;-143.98;100.00;68091.63;6245325;23;20028;-86
2021/05/24 07:11:19;;;;;;;7.97;0.70;;;;;;;-143.98;100.00;68091.63;6247616;22;20028;-85
2021/05/24 07:13:46;;;;;;;2.25;0.77;;;;;;;-143.98;100.00;68091.63;6259987;23;20055;-86
2021/05/24 07:16:14;;;;;;;4.75;0.80;;;;;;;-143.98;100.00;68091.63;6249167;23;20030;-85
2021/05/24 07:18:51;;;;;;;4.13;0.75;;;;;;;-143.98;100.00;68091.63;6247119;23;20024;-84
2021/05/24 07:21:21;;;;;;;3.55;0.63;;;;;;;-143.98;100.00;68091.63;6245984;23;20028;-85
2021/05/24 07:23:48;;;;;;;4.00;0.52;;;;;;;-143.98;100.00;68091.63;6221399;23;20094;-84
2021/05/24 07:26:15;;;;;;;1.90;0.60;;;;;;;-143.98;100.00;68091.63;6255363;22;20284;-85
2021/05/24 07:28:42;;;;;;;2.65;0.82;;;;;;;-143.98;100.00;68091.63;6230881;23;20036;-82
2021/05/24 07:31:15;;;;;;;3.83;0.40;;;;;;;-143.98;100.00;68091.63;6254157;23;20106;-83
2021/05/24 07:33:43;;;;;;;1.33;0.55;;;;;;;-143.98;100.00;68091.63;6252162;23;20028;-85
2021/05/24 07:36:11;;;;;;;5.55;0.70;;;;;;;-143.98;100.00;68091.63;6251689;23;20051;-83
2021/05/24 07:38:38;;;;;;;5.85;0.70;;;;;;;-143.98;100.00;68091.63;6226902;23;20051;-83
2021/05/24 07:41:08;;;;;;;3.03;0.65;;;;;;;-143.98;100.00;68091.63;6226264;23;20025;-83
2021/05/24 07:44:01;;;;;;;4.25;0.68;;;;;;;-143.98;100.00;68091.63;6252270;23;20176;-86
2021/05/24 07:46:29;;;;;;;2.60;0.73;;;;;;;-143.98;100.00;68091.63;6227192;23;20028;-84
2021/05/24 07:48:57;;;;;;;1.55;0.50;;;;;;;-143.98;100.00;68091.63;6252537;23;20177;-84
2021/05/24 07:51:34;;;;;;;2.78;0.60;;;;;;;-143.98;100.00;68091.63;6249963;23;20024;-83
2021/05/24 07:54:02;;;;;;;3.20;0.50;;;;;;;-143.98;100.00;68091.63;6250906;23;20110;-83
2021/05/24 07:56:31;;;;;;;1.63;0.43;;;;;;;-143.98;100.00;68091.63;6247720;23;20087;-83
2021/05/24 07:59:14;;;;;;;5.82;1.02;;;;;;;-143.98;100.00;68091.63;6251032;23;20038;-83
2021/05/24 08:01:41;;;;;;;2.22;0.40;;;;;;;-143.98;100.00;68091.63;6252042;23;20401;-84
2021/05/24 08:04:09;;;;;;;2.25;0.60;;;;;;;-143.98;100.00;68091.63;6228281;23;20420;-83
2021/05/24 08:06:37;;;;;;;4.13;0.73;;;;;;;-143.98;100.00;68091.63;6253094;23;20024;-84
2021/05/24 08:09:05;;;;;;;0.73;0.52;;;;;;;-143.98;100.00;68091.63;6253516;23;20024;-84
2021/05/24 08:11:32;;;;;;;1.23;0.50;;;;;;;-143.98;100.00;68091.63;6227499;23;20050;-84
2021/05/24 08:13:59;;;;;;;2.53;0.57;;;;;;;-143.98;100.00;68091.63;6228748;23;20024;-84
2021/05/24 08:16:32;;;;;;;1.20;0.40;;;;;;;-143.98;100.00;68091.63;6259927;22;20022;-84
2021/05/24 08:18:59;;;;;;;4.47;0.60;;;;;;;-143.98;100.00;68091.63;6266655;22;20076;-84
2021/05/24 08:21:26;;;;;;;4.68;1.15;;;;;;;-143.98;100.00;68091.63;6229286;22;20039;-85
2021/05/24 08:23:56;;;;;;;5.28;0.98;;;;;;;-143.98;100.00;68091.63;6225862;23;20055;-85
2021/05/24 08:26:23;;;;;;;2.42;0.77;;;;;;;-143.98;100.00;68091.63;6249751;23;20024;-85
2021/05/24 08:28:50;;;;;;;3.47;0.93;;;;;;;-143.98;100.00;68091.63;6250705;23;20099;-85
2021/05/24 08:31:23;;;;;;;3.42;0.60;;;;;;;-143.98;100.00;68091.63;6253078;23;20409;-85
2021/05/24 08:33:50;;;;;;;2.42;0.70;;;;;;;-143.98;100.00;68091.63;6255618;23;20091;-85
2021/05/24 08:36:17;;;;;;;1.80;0.70;;;;;;;-143.98;100.00;68091.63;6248562;23;20028;-85
2021/05/24 08:38:47;;;;;;;2.55;0.70;;;;;;;-143.98;100.00;68091.63;6222666;23;20055;-85
2021/05/24 08:41:15;;;;;;;3.85;0.50;;;;;;;-143.98;100.00;68091.63;6248053;23;20024;-84
2021/05/24 08:43:43;;;;;;;1.40;0.40;;;;;;;-143.98;100.00;68091.63;6247789;23;20047;-84
2021/05/24 08:46:10;;;;;;;1.85;0.57;;;;;;;-143.98;100.00;68091.63;6224924;23;20028;-83
2021/05/24 08:48:38;;;;;;;4.75;0.80;;;;;;;-143.98;100.00;68091.63;6223294;23;20062;-84
2021/05/24 08:51:06;;;;;;;0.93;0.40;;;;;;;-143.98;100.00;68091.63;6222485;23;20047;-84
2021/05/24 08:53:37;;;;;;;4.03;0.60;;;;;;;-143.98;100.00;68091.63;6245105;23;20054;-83
2021/05/24 08:56:08;;;;;;;4.60;0.77;;;;;;;-143.98;100.00;68091.63;6222955;23;20028;-84
2021/05/24 08:58:35;;;;;;;4.93;0.75;;;;;;;-143.98;100.00;68091.63;6221550;23;20257;-84
2021/05/24 09:01:05;;;;;;;1.65;0.50;;;;;;;-143.98;100.00;68091.63;6220031;23;20047;-84
2021/05/24 09:03:34;;;;;;;2.70;0.85;;;;;;;-143.98;100.00;68091.63;6244164;23;20028;-84
2021/05/24 09:06:09;;;;;;;4.68;0.60;;;;;;;-143.98;100.00;68091.63;6196480;23;20024;-84
2021/05/24 09:08:38;;;;;;;3.35;1.08;;;;;;;-143.98;100.00;68091.63;6221077;23;20024;-84
2021/05/24 09:11:06;;;;;;;2.40;0.43;;;;;;;-143.98;100.00;68091.63;6244708;23;20035;-84
2021/05/24 09:13:34;;;;;;;2.83;0.65;;;;;;;-143.98;100.00;68091.63;6244680;23;20098;-84
2021/05/24 09:16:04;;;;;;;4.10;0.80;;;;;;;-143.98;100.00;68091.63;6223736;23;20066;-84
2021/05/24 09:19:10;;;;;;;5.55;0.80;;;;;;;-143.98;100.00;68091.63;6250483;23;20188;-84
2021/05/24 09:21:37;;;;;;;1.58;0.47;;;;;;;-143.98;100.00;68091.63;6249710;23;20023;-84
2021/05/24 09:24:31;;;;;;;2.45;0.57;;;;;;;-143.98;100.00;68091.63;6256421;23;20028;-84
2021/05/24 09:27:02;;;;;;;5.32;0.60;;;;;;;-143.98;100.00;68091.63;6231303;23;20075;-85
2021/05/24 09:29:48;;;;;;;2.42;0.40;;;;;;;-143.98;100.00;68091.63;6227154;23;20107;-84
2021/05/24 09:32:19;;;;;;;1.95;0.43;;;;;;;-143.98;100.00;68091.63;6251497;23;20035;-84
2021/05/24 09:34:48;;;;;;;1.60;0.70;;;;;;;-143.98;100.00;68091.63;6251501;23;20036;-84
2021/05/24 09:37:16;;;;;;;5.68;0.50;;;;;;;-143.98;100.00;68091.63;6224498;23;20047;-84
2021/05/24 09:39:43;;;;;;;2.30;0.55;;;;;;;-143.98;100.00;68091.63;6223052;23;20311;-84
2021/05/24 09:42:12;;;;;;;2.78;0.50;;;;;;;-143.98;100.00;68091.63;6249544;23;20034;-83
2021/05/24 09:44:47;;;;;;;2.30;0.77;;;;;;;-143.98;100.00;68091.63;6248718;23;20023;-84
2021/05/24 09:47:14;;;;;;;2.28;0.60;;;;;;;-143.98;100.00;68091.63;6234671;23;20024;-84
2021/05/24 09:49:44;;;;;;;4.28;0.50;;;;;;;-143.98;100.00;68091.63;6207407;23;20035;-84
2021/05/24 09:52:11;;;;;;;3.65;0.65;;;;;;;-143.98;100.00;68091.63;6255415;23;20024;-83
2021/05/24 09:54:38;;;;;;;2.08;0.30;;;;;;;-143.98;100.00;68091.63;6250987;23;20024;-83
2021/05/24 09:57:10;;;;;;;3.35;0.63;;;;;;;-143.98;100.00;68091.63;6225358;23;20368;-83
2021/05/24 09:59:38;;;;;;;3.05;0.68;;;;;;;-143.98;100.00;68091.63;6249184;23;20028;-83
2021/05/24 10:02:07;;;;;;;2.03;0.75;;;;;;;-143.98;100.00;68091.63;6247452;22;20074;-84
2021/05/24 10:04:38;;;;;;;4.03;0.80;;;;;;;-143.98;100.00;68091.63;6247484;22;20102;-83
2021/05/24 10:07:06;;;;;;;1.63;0.60;;;;;;;-143.98;100.00;68091.63;6223502;23;20321;-84
2021/05/24 10:09:35;;;;;;;2.97;0.68;;;;;;;-143.98;100.00;68091.63;6248185;23;20024;-84
2021/05/24 10:12:03;;;;;;;2.03;0.40;;;;;;;-143.98;100.00;68091.63;6222430;23;20148;-84
2021/05/24 10:14:36;;;;;;;3.92;0.40;;;;;;;-143.98;100.00;68091.63;6198620;23;20054;-84
2021/05/24 10:17:05;;;;;;;3.28;0.55;;;;;;;-143.98;100.00;68091.63;6246743;23;20026;-84
2021/05/24 10:19:33;;;;;;;1.92;0.50;;;;;;;-143.98;100.00;68091.63;6247575;23;20094;-84
2021/05/24 10:22:00;;;;;;;2.15;0.80;;;;;;;-143.98;100.00;68091.63;6220954;23;20550;-83
2021/05/24 10:24:40;;;;;;;2.72;0.40;;;;;;;-143.98;100.00;68091.63;6245712;23;20230;-84
2021/05/24 10:27:07;;;;;;;1.80;0.40;;;;;;;-143.98;100.00;68091.63;6221391;23;20099;-84
2021/05/24 10:29:34;;;;;;;4.40;1.15;;;;;;;-143.98;100.00;68091.63;6248508;23;20080;-84
2021/05/24 10:32:23;;;;;;;1.52;0.50;;;;;;;-143.98;100.00;68091.63;6252880;23;20024;-84
2021/05/24 10:34:51;;;;;;;3.13;0.60;;;;;;;-143.98;100.00;68091.63;6248186;23;20071;-84
2021/05/24 10:37:18;;;;;;;3.33;0.50;;;;;;;-143.98;100.00;68091.63;6246428;23;20375;-84
2021/05/24 10:40:04;;;;;;;3.25;0.68;;;;;;;-143.98;100.00;68091.63;6221701;23;20024;-84
2021/05/24 10:42:40;;;;;;;2.08;0.50;;;;;;;-143.98;100.00;68091.63;6225163;23;20028;-84
2021/05/24 10:45:19;;;;;;;2.85;1.13;;;;;;;-143.98;100.00;68091.63;6246559;23;20067;-84
2021/05/24 10:47:58;;;;;;;2.45;0.57;;;;;;;-143.98;100.00;68091.63;6223686;23;20402;-83
2021/05/24 10:50:38;;;;;;;4.30;0.52;;;;;;;-143.98;100.00;68091.63;6228369;23;20357;-84
2021/05/24 10:53:08;;;;;;;1.90;0.40;;;;;;;-143.98;100.00;68091.63;6251761;22;20024;-84
2021/05/24 10:55:38;;;;;;;4.10;0.57;;;;;;;-143.98;100.00;68091.63;6249425;23;20098;-84
2021/05/24 10:58:16;;;;;;;2.15;0.43;;;;;;;-143.98;100.00;68091.63;6223161;23;20024;-85
2021/05/24 11:00:58;;;;;;;1.77;0.40;;;;;;;-143.98;100.00;68091.63;6225008;23;20426;-83
2021/05/24 11:03:25;;;;;;;4.75;0.40;;;;;;;-143.98;100.00;68091.63;6223243;23;20156;-83
2021/05/24 11:06:22;;;;;;;1.73;0.38;;;;;;;-143.98;100.00;68091.63;6246668;23;20016;-84
2021/05/24 11:09:03;;;;;;;4.40;0.43;;;;;;;-143.98;100.00;68091.63;6224341;23;20024;-84
2021/05/24 11:11:34;;;;;;;1.40;0.30;;;;;;;-143.98;100.00;68091.63;6247897;23;20082;-84
2021/05/24 11:14:06;;;;;;;1.38;0.30;;;;;;;-143.98;100.00;68091.63;6224891;23;20032;-83
2021/05/24 11:16:35;;;;;;;1.88;0.40;;;;;;;-143.98;100.00;68091.63;6223833;23;20024;-83
2021/05/24 11:19:11;;;;;;;3.17;0.70;;;;;;;-143.98;100.00;68091.63;6248490;23;20298;-84
2021/05/24 11:21:56;;;;;;;6.15;0.55;;;;;;;-143.98;100.00;68091.63;6248603;23;20031;-84
2021/05/24 11:24:44;;;;;;;5.65;0.75;;;;;;;-143.98;100.00;68091.63;6249779;23;20038;-84